Time,TemperatureF,DewpointF,PressureIn,WindDirection,WindDirectionDegrees,WindSpeedMPH,WindSpeedGustMPH,Humidity,HourlyPrecipIn,Conditions,Clouds,dailyrainin,SoftwareType,DateUTC
2017-06-24 00:00:00,79.9,76.7,29.94,South,179,4.0,9.0,90,0.00,,,0.00,Wunderground v.1.12,2017-06-24 05:00:00,
2017-06-24 00:10:00,79.9,76.7,29.94,WSW,244,3.0,3.0,90,0.00,,,0.00,Wunderground v.1.12,2017-06-24 05:10:00,
2017-06-24 00:20:00,79.9,76.7,29.95,SW,227,2.0,7.0,90,0.00,,,0.00,Wunderground v.1.12,2017-06-24 05:20:00,
2017-06-24 00:25:00,80.0,76.8,29.95,SW,235,2.0,2.0,90,0.00,,,0.00,Wunderground v.1.12,2017-06-24 05:25:00,
2017-06-24 00:35:00,79.9,76.7,29.95,SSW,213,2.0,9.0,90,0.00,,,0.00,Wunderground v.1.12,2017-06-24 05:35:00,
2017-06-24 00:40:00,79.9,76.7,29.95,SW,222,1.0,7.0,90,0.00,,,0.00,Wunderground v.1.12,2017-06-24 05:40:00,
2017-06-24 00:45:00,79.9,76.7,29.95,SW,234,1.0,7.0,90,0.00,,,0.00,Wunderground v.1.12,2017-06-24 05:45:00,
2017-06-24 00:55:00,79.8,76.6,29.95,SW,228,1.0,1.0,90,0.00,,,0.00,Wunderground v.1.12,2017-06-24 05:55:00,
2017-06-24 01:00:00,79.8,76.6,29.95,SSW,213,1.0,1.0,90,0.00,,,0.00,Wunderground v.1.12,2017-06-24 06:00:00,
2017-06-24 01:10:00,79.8,76.6,29.95,WSW,240,1.0,1.0,90,0.00,,,0.00,Wunderground v.1.12,2017-06-24 06:10:00,
2017-06-24 01:20:00,79.8,76.6,29.95,SSW,209,1.0,5.0,90,0.00,,,0.00,Wunderground v.1.12,2017-06-24 06:20:00,
2017-06-24 01:25:00,79.8,76.6,29.95,SW,217,1.0,1.0,90,0.00,,,0.00,Wunderground v.1.12,2017-06-24 06:25:00,
2017-06-24 01:30:00,79.7,76.5,29.95,SW,222,1.0,6.0,90,0.00,,,0.00,Wunderground v.1.12,2017-06-24 06:30:00,
2017-06-24 01:40:00,79.7,76.5,29.94,SW,232,2.0,6.0,90,0.00,,,0.00,Wunderground v.1.12,2017-06-24 06:40:00,
2017-06-24 01:45:00,79.6,76.4,29.94,SW,226,2.0,2.0,90,0.00,,,0.00,Wunderground v.1.12,2017-06-24 06:45:00,
2017-06-24 01:55:00,79.6,76.4,29.93,SW,225,2.0,6.0,90,0.00,,,0.00,Wunderground v.1.12,2017-06-24 06:55:00,
2017-06-24 02:00:00,79.6,76.4,29.93,SW,223,2.0,2.0,90,0.00,,,0.00,Wunderground v.1.12,2017-06-24 07:00:00,
2017-06-24 02:10:00,79.4,76.2,29.92,SW,215,1.0,1.0,90,0.00,,,0.00,Wunderground v.1.12,2017-06-24 07:10:00,
2017-06-24 02:15:00,79.4,76.2,29.92,SW,223,1.0,1.0,90,0.00,,,0.00,Wunderground v.1.12,2017-06-24 07:15:00,
2017-06-24 02:20:00,79.4,76.2,29.92,SSW,203,2.0,10.0,90,0.00,,,0.00,Wunderground v.1.12,2017-06-24 07:20:00,
2017-06-24 02:30:00,79.4,76.2,29.92,SSW,213,1.0,10.0,90,0.00,,,0.00,Wunderground v.1.12,2017-06-24 07:30:00,
2017-06-24 02:35:00,79.5,76.3,29.91,SSW,207,1.0,1.0,90,0.00,,,0.00,Wunderground v.1.12,2017-06-24 07:35:00,
2017-06-24 02:45:00,79.4,76.2,29.91,SSW,211,3.0,3.0,90,0.00,,,0.00,Wunderground v.1.12,2017-06-24 07:45:00,
2017-06-24 02:50:00,79.5,76.3,29.91,SSW,206,4.0,4.0,90,0.00,,,0.00,Wunderground v.1.12,2017-06-24 07:50:00,
2017-06-24 02:55:00,79.4,76.2,29.91,SSW,205,3.0,12.0,90,0.00,,,0.00,Wunderground v.1.12,2017-06-24 07:55:00,
2017-06-24 03:00:00,79.4,76.2,29.91,SSW,213,4.0,12.0,90,0.00,,,0.00,Wunderground v.1.12,2017-06-24 08:00:00,
2017-06-24 03:10:00,79.5,76.3,29.91,SSW,193,2.0,2.0,90,0.00,,,0.00,Wunderground v.1.12,2017-06-24 08:10:00,
2017-06-24 03:15:00,79.5,76.3,29.91,SW,215,2.0,11.0,90,0.00,,,0.00,Wunderground v.1.12,2017-06-24 08:15:00,
2017-06-24 03:20:00,79.5,76.3,29.92,SW,224,3.0,3.0,90,0.00,,,0.00,Wunderground v.1.12,2017-06-24 08:20:00,
2017-06-24 03:25:00,79.5,76.3,29.92,SSW,198,3.0,3.0,90,0.00,,,0.00,Wunderground v.1.12,2017-06-24 08:25:00,
2017-06-24 03:35:00,79.6,76.7,29.91,WSW,241,1.0,1.0,91,0.00,,,0.00,Wunderground v.1.12,2017-06-24 08:35:00,
2017-06-24 03:40:00,79.4,76.2,29.91,SSW,210,2.0,2.0,90,0.00,,,0.00,Wunderground v.1.12,2017-06-24 08:40:00,
2017-06-24 03:50:00,79.4,76.2,29.92,SW,229,2.0,2.0,90,0.00,,,0.00,Wunderground v.1.12,2017-06-24 08:50:00,
2017-06-24 03:55:00,79.4,76.2,29.92,SW,225,2.0,14.0,90,0.00,,,0.00,Wunderground v.1.12,2017-06-24 08:55:00,
2017-06-24 04:00:00,79.4,76.2,29.92,SW,216,1.0,6.0,90,0.00,,,0.00,Wunderground v.1.12,2017-06-24 09:00:00,
2017-06-24 04:10:00,79.3,76.1,29.92,WSW,242,1.0,1.0,90,0.00,,,0.00,Wunderground v.1.12,2017-06-24 09:10:00,
2017-06-24 04:15:00,79.3,76.1,29.92,SW,232,0.0,10.0,90,0.00,,,0.00,Wunderground v.1.12,2017-06-24 09:15:00,
2017-06-24 04:30:00,79.2,76.0,29.92,West,268,0.0,0.0,90,0.00,,,0.00,Wunderground v.1.12,2017-06-24 09:30:00,
2017-06-24 04:35:00,79.2,76.0,29.92,SSW,207,0.0,4.0,90,0.00,,,0.00,Wunderground v.1.12,2017-06-24 09:35:00,
2017-06-24 04:40:00,79.2,76.0,29.92,SW,225,1.0,5.0,90,0.00,,,0.00,Wunderground v.1.12,2017-06-24 09:40:00,
2017-06-24 04:50:00,79.1,75.9,29.92,SW,234,0.0,4.0,90,0.00,,,0.00,Wunderground v.1.12,2017-06-24 09:50:00,
2017-06-24 04:55:00,79.1,75.9,29.92,SW,232,1.0,1.0,90,0.00,,,0.00,Wunderground v.1.12,2017-06-24 09:55:00,
2017-06-24 05:00:00,79.1,75.9,29.92,SSW,205,2.0,6.0,90,0.00,,,0.00,Wunderground v.1.12,2017-06-24 10:00:00,
2017-06-24 05:10:00,79.2,76.3,29.92,SSW,206,1.0,1.0,91,0.00,,,0.00,Wunderground v.1.12,2017-06-24 10:10:00,
2017-06-24 05:15:00,79.2,76.0,29.92,WSW,239,0.0,9.0,90,0.00,,,0.00,Wunderground v.1.12,2017-06-24 10:15:00,
2017-06-24 05:20:00,79.2,76.0,29.92,West,259,0.0,1.0,90,0.00,,,0.00,Wunderground v.1.12,2017-06-24 10:20:00,
2017-06-24 05:25:00,79.1,75.9,29.92,SW,228,0.0,2.0,90,0.00,,,0.00,Wunderground v.1.12,2017-06-24 10:25:00,
2017-06-24 05:35:00,79.0,75.8,29.93,WSW,238,1.0,1.0,90,0.00,,,0.00,Wunderground v.1.12,2017-06-24 10:35:00,
2017-06-24 05:40:00,79.0,75.8,29.93,SW,224,0.0,12.0,90,0.00,,,0.00,Wunderground v.1.12,2017-06-24 10:40:00,
2017-06-24 05:50:00,79.1,75.9,29.94,SW,233,0.0,0.0,90,0.00,,,0.00,Wunderground v.1.12,2017-06-24 10:50:00,
2017-06-24 05:55:00,79.1,75.9,29.94,SW,233,0.0,0.0,90,0.00,,,0.00,Wunderground v.1.12,2017-06-24 10:55:00,
2017-06-24 06:00:00,79.1,75.9,29.94,WSW,238,0.0,4.0,90,0.00,,,0.00,Wunderground v.1.12,2017-06-24 11:00:00,
2017-06-24 06:10:00,79.2,76.0,29.95,SW,223,0.0,5.0,90,0.00,,,0.00,Wunderground v.1.12,2017-06-24 11:10:00,
2017-06-24 06:15:00,79.3,76.1,29.95,WNW,291,0.0,5.0,90,0.00,,,0.00,Wunderground v.1.12,2017-06-24 11:15:00,
2017-06-24 06:20:00,79.5,76.3,29.95,NW,317,1.0,1.0,90,0.00,,,0.00,Wunderground v.1.12,2017-06-24 11:20:00,
2017-06-24 06:30:00,79.6,76.4,29.95,West,269,1.0,1.0,90,0.00,,,0.00,Wunderground v.1.12,2017-06-24 11:30:00,
2017-06-24 06:40:00,79.5,76.0,29.95,WSW,238,1.0,5.0,89,0.00,,,0.00,Wunderground v.1.12,2017-06-24 11:40:00,
2017-06-24 06:45:00,79.6,76.1,29.95,WSW,242,1.0,4.0,89,0.00,,,0.00,Wunderground v.1.12,2017-06-24 11:45:00,
2017-06-24 06:50:00,79.7,76.2,29.95,SW,224,1.0,4.0,89,0.00,,,0.00,Wunderground v.1.12,2017-06-24 11:50:00,
2017-06-24 07:00:00,80.0,76.5,29.95,SW,229,1.0,1.0,89,0.00,,,0.00,Wunderground v.1.12,2017-06-24 12:00:00,
2017-06-24 07:10:00,80.3,76.8,29.95,WSW,247,0.0,10.0,89,0.00,,,0.00,Wunderground v.1.12,2017-06-24 12:10:00,
2017-06-24 07:15:00,80.4,76.5,29.95,SW,223,1.0,1.0,88,0.00,,,0.00,Wunderground v.1.12,2017-06-24 12:15:00,
2017-06-24 07:20:00,80.5,76.6,29.96,WSW,246,1.0,1.0,88,0.00,,,0.00,Wunderground v.1.12,2017-06-24 12:20:00,
2017-06-24 07:25:00,80.5,76.6,29.96,WSW,250,0.0,7.0,88,0.00,,,0.00,Wunderground v.1.12,2017-06-24 12:25:00,
2017-06-24 07:35:00,80.9,77.0,29.96,WSW,247,0.0,2.0,88,0.00,,,0.00,Wunderground v.1.12,2017-06-24 12:35:00,
2017-06-24 07:40:00,80.9,76.7,29.96,West,281,1.0,1.0,87,0.00,,,0.00,Wunderground v.1.12,2017-06-24 12:40:00,
2017-06-24 07:50:00,81.2,77.0,29.97,WSW,241,1.0,1.0,87,0.00,,,0.00,Wunderground v.1.12,2017-06-24 12:50:00,
2017-06-24 07:55:00,81.4,77.2,29.97,SSW,208,0.0,11.0,87,0.00,,,0.00,Wunderground v.1.12,2017-06-24 12:55:00,
2017-06-24 08:00:00,81.5,76.9,29.97,WSW,243,1.0,1.0,86,0.00,,,0.00,Wunderground v.1.12,2017-06-24 13:00:00,
2017-06-24 08:10:00,81.9,77.3,29.97,West,266,1.0,1.0,86,0.00,,,0.00,Wunderground v.1.12,2017-06-24 13:10:00,
2017-06-24 08:20:00,82.1,77.1,29.97,SW,231,1.0,1.0,85,0.00,,,0.00,Wunderground v.1.12,2017-06-24 13:20:00,
2017-06-24 08:25:00,82.2,77.6,29.97,SSW,202,1.0,1.0,86,0.00,,,0.00,Wunderground v.1.12,2017-06-24 13:25:00,
2017-06-24 08:30:00,82.5,77.9,29.97,SW,230,1.0,1.0,86,0.00,,,0.00,Wunderground v.1.12,2017-06-24 13:30:00,
2017-06-24 08:40:00,82.9,77.9,29.97,WSW,247,0.0,0.0,85,0.00,,,0.00,Wunderground v.1.12,2017-06-24 13:40:00,
2017-06-24 08:45:00,83.2,78.2,29.97,WSW,243,1.0,3.0,85,0.00,,,0.00,Wunderground v.1.12,2017-06-24 13:45:00,
2017-06-24 08:50:00,83.3,78.0,29.97,SSW,213,2.0,2.0,84,0.00,,,0.00,Wunderground v.1.12,2017-06-24 13:50:00,
2017-06-24 09:00:00,83.3,78.0,29.97,WSW,242,1.0,1.0,84,0.00,,,0.00,Wunderground v.1.12,2017-06-24 14:00:00,
2017-06-24 09:10:00,83.3,77.6,29.97,West,265,1.0,5.0,83,0.00,,,0.00,Wunderground v.1.12,2017-06-24 14:10:00,
2017-06-24 09:15:00,83.4,77.7,29.97,SW,226,1.0,1.0,83,0.00,,,0.00,Wunderground v.1.12,2017-06-24 14:15:00,
2017-06-24 09:25:00,83.8,78.1,29.97,SW,231,1.0,1.0,83,0.00,,,0.00,Wunderground v.1.12,2017-06-24 14:25:00,
2017-06-24 09:30:00,83.7,78.0,29.97,WSW,237,1.0,1.0,83,0.00,,,0.00,Wunderground v.1.12,2017-06-24 14:30:00,
2017-06-24 09:35:00,83.8,78.1,29.97,SW,226,1.0,6.0,83,0.00,,,0.00,Wunderground v.1.12,2017-06-24 14:35:00,
2017-06-24 09:45:00,84.1,78.4,29.97,NW,310,1.0,1.0,83,0.00,,,0.00,Wunderground v.1.12,2017-06-24 14:45:00,
2017-06-24 09:50:00,84.0,77.9,29.98,SW,226,1.0,4.0,82,0.00,,,0.00,Wunderground v.1.12,2017-06-24 14:50:00,
2017-06-24 10:00:00,83.9,78.2,29.98,West,273,1.0,1.0,83,0.00,,,0.00,Wunderground v.1.12,2017-06-24 15:00:00,
2017-06-24 10:10:00,83.7,77.6,29.98,West,271,1.0,1.0,82,0.00,,,0.00,Wunderground v.1.12,2017-06-24 15:10:00,
2017-06-24 10:15:00,83.4,77.7,29.98,WSW,254,1.0,1.0,83,0.00,,,0.00,Wunderground v.1.12,2017-06-24 15:15:00,
2017-06-24 10:20:00,83.6,77.9,29.98,SSW,209,1.0,7.0,83,0.00,,,0.00,Wunderground v.1.12,2017-06-24 15:20:00,
2017-06-24 10:30:00,84.0,78.3,29.98,SSW,202,1.0,1.0,83,0.00,,,0.00,Wunderground v.1.12,2017-06-24 15:30:00,
2017-06-24 10:35:00,84.1,78.4,29.98,WSW,242,0.0,6.0,83,0.00,,,0.00,Wunderground v.1.12,2017-06-24 15:35:00,
2017-06-24 10:45:00,84.5,78.8,29.98,WSW,240,0.0,6.0,83,0.00,,,0.00,Wunderground v.1.12,2017-06-24 15:45:00,
2017-06-24 10:50:00,85.0,78.9,29.98,SW,224,0.0,4.0,82,0.00,,,0.00,Wunderground v.1.12,2017-06-24 15:50:00,
2017-06-24 11:00:00,85.0,78.5,29.98,SW,236,0.0,7.0,81,0.00,,,0.00,Wunderground v.1.12,2017-06-24 16:00:00,
2017-06-24 11:10:00,85.4,78.9,29.98,WSW,252,0.0,4.0,81,0.00,,,0.00,Wunderground v.1.12,2017-06-24 16:10:00,
2017-06-24 11:15:00,85.2,78.7,29.98,SSW,207,2.0,4.0,81,0.00,,,0.00,Wunderground v.1.12,2017-06-24 16:15:00,
2017-06-24 11:25:00,85.2,78.7,29.98,WSW,254,1.0,1.0,81,0.00,,,0.00,Wunderground v.1.12,2017-06-24 16:25:00,
2017-06-24 11:30:00,85.0,78.5,29.98,SW,225,0.0,14.0,81,0.00,,,0.00,Wunderground v.1.12,2017-06-24 16:30:00,
2017-06-24 11:35:00,85.2,78.7,29.98,SW,229,0.0,4.0,81,0.00,,,0.00,Wunderground v.1.12,2017-06-24 16:35:00,
2017-06-24 11:45:00,85.8,79.3,29.98,SW,230,0.0,4.0,81,0.00,,,0.00,Wunderground v.1.12,2017-06-24 16:45:00,
2017-06-24 11:50:00,85.8,78.9,29.99,WSW,245,0.0,1.0,80,0.00,,,0.00,Wunderground v.1.12,2017-06-24 16:50:00,
2017-06-24 11:55:00,85.9,79.0,29.99,WSW,249,0.0,1.0,80,0.00,,,0.00,Wunderground v.1.12,2017-06-24 16:55:00,
2017-06-24 12:00:00,85.8,78.9,29.99,West,279,1.0,1.0,80,0.00,,,0.00,Wunderground v.1.12,2017-06-24 17:00:00,
2017-06-24 12:10:00,86.2,79.7,29.99,SSW,211,1.0,1.0,81,0.00,,,0.00,Wunderground v.1.12,2017-06-24 17:10:00,
2017-06-24 12:15:00,85.9,78.6,29.99,SW,226,2.0,2.0,79,0.00,,,0.00,Wunderground v.1.12,2017-06-24 17:15:00,
2017-06-24 12:20:00,85.7,78.4,29.98,SW,226,2.0,2.0,79,0.00,,,0.00,Wunderground v.1.12,2017-06-24 17:20:00,
2017-06-24 12:30:00,85.3,78.8,29.98,WSW,240,3.0,3.0,81,0.00,,,0.00,Wunderground v.1.12,2017-06-24 17:30:00,
2017-06-24 12:35:00,85.2,78.7,29.98,WSW,240,3.0,3.0,81,0.00,,,0.00,Wunderground v.1.12,2017-06-24 17:35:00,
2017-06-24 12:40:00,85.2,78.7,29.98,SSW,210,2.0,2.0,81,0.00,,,0.00,Wunderground v.1.12,2017-06-24 17:40:00,
2017-06-24 12:50:00,85.1,78.6,29.98,SW,215,3.0,3.0,81,0.00,,,0.00,Wunderground v.1.12,2017-06-24 17:50:00,
2017-06-24 12:55:00,85.4,79.3,29.98,WSW,253,2.0,2.0,82,0.00,,,0.00,Wunderground v.1.12,2017-06-24 17:55:00,
2017-06-24 13:00:00,85.4,78.9,29.98,SW,224,2.0,10.0,81,0.00,,,0.00,Wunderground v.1.12,2017-06-24 18:00:00,
2017-06-24 13:10:00,85.3,78.8,29.98,WSW,242,3.0,3.0,81,0.00,,,0.00,Wunderground v.1.12,2017-06-24 18:10:00,
2017-06-24 13:15:00,85.1,78.2,29.98,SW,228,4.0,10.0,80,0.00,,,0.00,Wunderground v.1.12,2017-06-24 18:15:00,
2017-06-24 13:20:00,85.0,78.5,29.98,SSW,213,3.0,11.0,81,0.00,,,0.00,Wunderground v.1.12,2017-06-24 18:20:00,
2017-06-24 13:30:00,85.4,78.9,29.98,SW,226,2.0,11.0,81,0.00,,,0.00,Wunderground v.1.12,2017-06-24 18:30:00,
2017-06-24 13:35:00,85.4,78.5,29.98,SSW,210,3.0,3.0,80,0.00,,,0.00,Wunderground v.1.12,2017-06-24 18:35:00,
2017-06-24 13:40:00,85.1,78.2,29.98,SSW,200,4.0,4.0,80,0.00,,,0.00,Wunderground v.1.12,2017-06-24 18:40:00,
2017-06-24 13:50:00,85.0,78.5,29.98,NW,304,2.0,2.0,81,0.00,,,0.00,Wunderground v.1.12,2017-06-24 18:50:00,
2017-06-24 13:55:00,84.9,78.4,29.98,SW,227,2.0,5.0,81,0.00,,,0.00,Wunderground v.1.12,2017-06-24 18:55:00,
2017-06-24 14:00:00,85.2,79.1,29.98,SSW,204,1.0,1.0,82,0.00,,,0.00,Wunderground v.1.12,2017-06-24 19:00:00,
2017-06-24 14:10:00,85.5,79.0,29.98,SW,235,0.0,2.0,81,0.00,,,0.00,Wunderground v.1.12,2017-06-24 19:10:00,
2017-06-24 14:20:00,85.8,78.9,29.98,West,265,0.0,9.0,80,0.00,,,0.00,Wunderground v.1.12,2017-06-24 19:20:00,
2017-06-24 14:25:00,85.9,79.0,29.98,SW,230,0.0,9.0,80,0.00,,,0.00,Wunderground v.1.12,2017-06-24 19:25:00,
2017-06-24 14:30:00,85.7,78.8,29.98,WNW,284,0.0,9.0,80,0.00,,,0.00,Wunderground v.1.12,2017-06-24 19:30:00,
2017-06-24 14:40:00,85.4,78.5,29.97,SW,217,1.0,1.0,80,0.00,,,0.00,Wunderground v.1.12,2017-06-24 19:40:00,
2017-06-24 14:45:00,85.3,78.4,29.97,WSW,248,1.0,1.0,80,0.00,,,0.00,Wunderground v.1.12,2017-06-24 19:45:00,
2017-06-24 14:50:00,85.1,78.2,29.98,WSW,244,1.0,1.0,80,0.00,,,0.00,Wunderground v.1.12,2017-06-24 19:50:00,
2017-06-24 15:00:00,84.5,78.0,29.98,SW,215,1.0,9.0,81,0.00,,,0.00,Wunderground v.1.12,2017-06-24 20:00:00,
2017-06-24 15:10:00,84.5,78.4,29.98,WNW,297,1.0,1.0,82,0.00,,,0.00,Wunderground v.1.12,2017-06-24 20:10:00,
2017-06-24 15:15:00,84.6,78.5,29.98,WSW,238,1.0,1.0,82,0.00,,,0.00,Wunderground v.1.12,2017-06-24 20:15:00,
2017-06-24 15:20:00,84.8,78.3,29.97,WSW,258,0.0,9.0,81,0.00,,,0.00,Wunderground v.1.12,2017-06-24 20:20:00,
2017-06-24 15:30:00,84.8,78.3,29.97,SW,223,1.0,9.0,81,0.00,,,0.00,Wunderground v.1.12,2017-06-24 20:30:00,
2017-06-24 15:35:00,84.7,78.2,29.97,SSW,204,1.0,1.0,81,0.00,,,0.00,Wunderground v.1.12,2017-06-24 20:35:00,
2017-06-24 15:45:00,85.0,78.9,29.97,SSW,199,1.0,6.0,82,0.00,,,0.00,Wunderground v.1.12,2017-06-24 20:45:00,
2017-06-24 15:50:00,85.2,79.1,29.95,SW,227,1.0,1.0,82,0.00,,,0.00,Wunderground v.1.12,2017-06-24 20:50:00,
2017-06-24 15:55:00,85.1,78.6,29.95,SW,218,1.0,1.0,81,0.00,,,0.00,Wunderground v.1.12,2017-06-24 20:55:00,
2017-06-24 16:00:00,85.1,79.0,29.95,WSW,254,1.0,1.0,82,0.00,,,0.00,Wunderground v.1.12,2017-06-24 21:00:00,
2017-06-24 16:10:00,85.5,79.0,29.95,WSW,249,0.0,6.0,81,0.00,,,0.00,Wunderground v.1.12,2017-06-24 21:10:00,
2017-06-24 16:15:00,85.3,78.8,29.95,WSW,239,1.0,1.0,81,0.00,,,0.00,Wunderground v.1.12,2017-06-24 21:15:00,
2017-06-24 16:20:00,85.3,78.8,29.95,West,279,1.0,1.0,81,0.00,,,0.00,Wunderground v.1.12,2017-06-24 21:20:00,
2017-06-24 16:25:00,85.3,79.2,29.95,WSW,246,0.0,5.0,82,0.00,,,0.00,Wunderground v.1.12,2017-06-24 21:25:00,
2017-06-24 16:35:00,85.2,78.7,29.94,SSW,196,2.0,11.0,81,0.00,,,0.00,Wunderground v.1.12,2017-06-24 21:35:00,
2017-06-24 16:40:00,84.9,78.8,29.94,SW,219,2.0,2.0,82,0.00,,,0.00,Wunderground v.1.12,2017-06-24 21:40:00,
2017-06-24 16:45:00,84.8,78.7,29.94,SSW,212,3.0,3.0,82,0.00,,,0.00,Wunderground v.1.12,2017-06-24 21:45:00,
2017-06-24 16:55:00,84.6,78.5,29.94,SW,233,1.0,1.0,82,0.00,,,0.00,Wunderground v.1.12,2017-06-24 21:55:00,
2017-06-24 17:00:00,84.2,78.1,29.94,WSW,240,1.0,9.0,82,0.00,,,0.00,Wunderground v.1.12,2017-06-24 22:00:00,
2017-06-24 17:10:00,84.2,78.5,29.94,SW,226,1.0,1.0,83,0.00,,,0.00,Wunderground v.1.12,2017-06-24 22:10:00,
2017-06-24 17:15:00,84.3,78.6,29.94,WSW,244,1.0,1.0,83,0.00,,,0.00,Wunderground v.1.12,2017-06-24 22:15:00,
2017-06-24 17:25:00,84.7,79.0,29.94,WSW,254,0.0,4.0,83,0.00,,,0.00,Wunderground v.1.12,2017-06-24 22:25:00,
2017-06-24 17:30:00,84.7,78.6,29.94,SW,221,1.0,1.0,82,0.00,,,0.00,Wunderground v.1.12,2017-06-24 22:30:00,
2017-06-24 17:35:00,84.6,78.9,29.95,WSW,240,1.0,1.0,83,0.00,,,0.00,Wunderground v.1.12,2017-06-24 22:35:00,
2017-06-24 17:45:00,84.2,78.5,29.95,West,271,1.0,1.0,83,0.00,,,0.00,Wunderground v.1.12,2017-06-24 22:45:00,
2017-06-24 17:50:00,84.1,78.4,29.95,SW,236,0.0,2.0,83,0.00,,,0.00,Wunderground v.1.12,2017-06-24 22:50:00,
2017-06-24 18:00:00,83.8,78.1,29.95,West,261,0.0,5.0,83,0.00,,,0.00,Wunderground v.1.12,2017-06-24 23:00:00,
2017-06-24 18:10:00,83.3,78.0,29.95,SW,233,0.0,2.0,84,0.00,,,0.00,Wunderground v.1.12,2017-06-24 23:10:00,
2017-06-24 18:15:00,83.2,77.9,29.95,SW,229,0.0,2.0,84,0.00,,,0.00,Wunderground v.1.12,2017-06-24 23:15:00,
2017-06-24 18:20:00,83.1,77.8,29.95,WSW,242,0.0,2.0,84,0.00,,,0.00,Wunderground v.1.12,2017-06-24 23:20:00,
2017-06-24 18:25:00,83.0,78.0,29.95,WSW,252,1.0,1.0,85,0.00,,,0.00,Wunderground v.1.12,2017-06-24 23:25:00,
2017-06-24 18:35:00,82.9,77.9,29.95,SW,231,1.0,9.0,85,0.00,,,0.00,Wunderground v.1.12,2017-06-24 23:35:00,
2017-06-24 18:40:00,82.8,77.8,29.95,WSW,255,1.0,1.0,85,0.00,,,0.00,Wunderground v.1.12,2017-06-24 23:40:00,
2017-06-24 18:45:00,82.7,77.7,29.95,SW,226,1.0,1.0,85,0.00,,,0.00,Wunderground v.1.12,2017-06-24 23:45:00,
2017-06-24 18:55:00,82.4,77.4,29.96,SW,225,0.0,3.0,85,0.00,,,0.00,Wunderground v.1.12,2017-06-24 23:55:00,
2017-06-24 19:00:00,82.3,77.7,29.96,SW,225,1.0,1.0,86,0.00,,,0.00,Wunderground v.1.12,2017-06-25 00:00:00,
2017-06-24 19:10:00,82.2,77.6,29.97,West,267,1.0,1.0,86,0.00,,,0.00,Wunderground v.1.12,2017-06-25 00:10:00,
2017-06-24 19:15:00,82.1,77.5,29.97,SW,228,1.0,1.0,86,0.00,,,0.00,Wunderground v.1.12,2017-06-25 00:15:00,
2017-06-24 19:25:00,82.0,77.4,29.97,SSW,207,0.0,5.0,86,0.00,,,0.00,Wunderground v.1.12,2017-06-25 00:25:00,
2017-06-24 19:30:00,82.0,77.7,29.97,WSW,238,1.0,5.0,87,0.00,,,0.00,Wunderground v.1.12,2017-06-25 00:30:00,
2017-06-24 19:35:00,81.9,77.6,29.97,WSW,246,2.0,7.0,87,0.00,,,0.00,Wunderground v.1.12,2017-06-25 00:35:00,
2017-06-24 19:45:00,81.8,77.5,29.97,SW,229,1.0,7.0,87,0.00,,,0.00,Wunderground v.1.12,2017-06-25 00:45:00,
2017-06-24 19:50:00,81.7,77.5,29.97,SW,236,0.0,3.0,87,0.00,,,0.00,Wunderground v.1.12,2017-06-25 00:50:00,
2017-06-24 19:55:00,81.6,77.4,29.97,WSW,249,0.0,3.0,87,0.00,,,0.00,Wunderground v.1.12,2017-06-25 00:55:00,
2017-06-24 20:00:00,81.6,77.4,29.97,West,264,0.0,2.0,87,0.00,,,0.00,Wunderground v.1.12,2017-06-25 01:00:00,
2017-06-24 20:10:00,81.5,77.6,29.97,SW,222,0.0,5.0,88,0.00,,,0.00,Wunderground v.1.12,2017-06-25 01:10:00,
2017-06-24 20:15:00,81.5,77.6,29.97,WSW,237,0.0,5.0,88,0.00,,,0.00,Wunderground v.1.12,2017-06-25 01:15:00,
2017-06-24 20:20:00,81.4,77.5,29.98,SW,221,1.0,1.0,88,0.00,,,0.00,Wunderground v.1.12,2017-06-25 01:20:00,
2017-06-24 20:25:00,81.5,77.6,29.98,WSW,248,0.0,7.0,88,0.00,,,0.00,Wunderground v.1.12,2017-06-25 01:25:00,
2017-06-24 20:35:00,81.5,77.6,29.97,SW,229,1.0,1.0,88,0.00,,,0.00,Wunderground v.1.12,2017-06-25 01:35:00,
2017-06-24 20:40:00,81.4,77.5,29.97,SW,220,1.0,5.0,88,0.00,,,0.00,Wunderground v.1.12,2017-06-25 01:40:00,
2017-06-24 20:45:00,81.4,77.5,29.97,WSW,240,1.0,5.0,88,0.00,,,0.00,Wunderground v.1.12,2017-06-25 01:45:00,
2017-06-24 20:50:00,81.3,77.4,29.98,WSW,241,1.0,5.0,88,0.00,,,0.00,Wunderground v.1.12,2017-06-25 01:50:00,
2017-06-24 21:00:00,81.4,77.5,29.98,SW,231,0.0,3.0,88,0.00,,,0.00,Wunderground v.1.12,2017-06-25 02:00:00,
2017-06-24 21:10:00,81.3,77.4,29.98,SW,235,1.0,4.0,88,0.00,,,0.00,Wunderground v.1.12,2017-06-25 02:10:00,
2017-06-24 21:20:00,81.3,77.4,29.98,West,259,0.0,4.0,88,0.00,,,0.00,Wunderground v.1.12,2017-06-25 02:20:00,
2017-06-24 21:25:00,81.3,77.4,29.98,SW,232,0.0,4.0,88,0.00,,,0.00,Wunderground v.1.12,2017-06-25 02:25:00,
2017-06-24 21:30:00,81.3,77.4,29.98,WSW,257,1.0,4.0,88,0.00,,,0.00,Wunderground v.1.12,2017-06-25 02:30:00,
2017-06-24 21:40:00,81.3,77.4,29.99,SW,230,1.0,1.0,88,0.00,,,0.00,Wunderground v.1.12,2017-06-25 02:40:00,
2017-06-24 21:45:00,81.3,77.4,29.99,SSW,205,1.0,1.0,88,0.00,,,0.00,Wunderground v.1.12,2017-06-25 02:45:00,
2017-06-24 21:55:00,81.3,77.4,30.00,West,277,0.0,3.0,88,0.00,,,0.00,Wunderground v.1.12,2017-06-25 02:55:00,
2017-06-24 22:00:00,81.3,77.4,30.00,SW,229,0.0,4.0,88,0.00,,,0.00,Wunderground v.1.12,2017-06-25 03:00:00,
2017-06-24 22:10:00,81.3,77.4,30.00,SW,225,0.0,4.0,88,0.00,,,0.00,Wunderground v.1.12,2017-06-25 03:10:00,
2017-06-24 22:15:00,81.3,77.4,30.00,SW,231,1.0,1.0,88,0.00,,,0.00,Wunderground v.1.12,2017-06-25 03:15:00,
2017-06-24 22:20:00,81.3,77.4,30.00,SSW,202,1.0,3.0,88,0.00,,,0.00,Wunderground v.1.12,2017-06-25 03:20:00,
2017-06-24 22:25:00,81.1,77.2,30.00,WSW,247,1.0,4.0,88,0.00,,,0.00,Wunderground v.1.12,2017-06-25 03:25:00,
2017-06-24 22:35:00,81.2,77.3,30.01,WSW,247,1.0,1.0,88,0.00,,,0.00,Wunderground v.1.12,2017-06-25 03:35:00,
2017-06-24 22:40:00,81.2,77.3,30.01,West,278,1.0,7.0,88,0.00,,,0.00,Wunderground v.1.12,2017-06-25 03:40:00,
2017-06-24 22:45:00,81.2,77.3,30.01,WSW,248,1.0,1.0,88,0.00,,,0.00,Wunderground v.1.12,2017-06-25 03:45:00,
2017-06-24 22:55:00,81.2,77.3,30.01,WSW,244,1.0,7.0,88,0.00,,,0.00,Wunderground v.1.12,2017-06-25 03:55:00,
2017-06-24 23:00:00,81.3,77.4,30.01,WNW,291,1.0,7.0,88,0.00,,,0.00,Wunderground v.1.12,2017-06-25 04:00:00,
2017-06-24 23:10:00,81.3,77.4,30.01,West,277,2.0,2.0,88,0.00,,,0.00,Wunderground v.1.12,2017-06-25 04:10:00,
2017-06-24 23:15:00,81.3,77.4,30.01,SW,223,1.0,1.0,88,0.00,,,0.00,Wunderground v.1.12,2017-06-25 04:15:00,